Time;durP1;ratioP1;P1;durP2;ratioP2;P2;SDS_P1;SDS_P2;PMS_P1;PMS_P2;Temp;Humidity;BMP_temperature;BMP_pressure;BME280_temperature;BME280_humidity;BME280_pressure;Samples;Min_cycle;Max_cycle;Signal;HPM_P1;HPM_P2
2021/09/10 00:02:16;;;;;;;;;;;;;;;16.49;76.97;100285.76;1707059;82;20603;-81
2021/09/10 00:04:45;;;;;;;;;;;;;;;16.45;77.59;100291.17;1704883;82;20142;-82
2021/09/10 00:07:13;;;;;;;;;;;;;;;16.44;77.24;100290.84;1704906;82;20152;-83
2021/09/10 00:09:40;;;;;;;;;;;;;;;16.40;77.02;100293.57;1710885;82;20330;-82
2021/09/10 00:12:09;;;;;;;;;;;;;;;16.39;76.88;100283.94;1710494;82;20531;-79
2021/09/10 00:14:36;;;;;;;;;;;;;;;16.38;77.16;100287.61;1702109;82;21190;-81
2021/09/10 00:17:02;;;;;;;;;;;;;;;16.24;78.46;100296.50;1706663;82;20602;-80
2021/09/10 00:19:31;;;;;;;;;;;;;;;16.19;78.86;100290.89;1681795;82;20324;-79
2021/09/10 00:21:56;;;;;;;;;;;;;;;16.12;79.07;100288.17;1701750;82;20174;-80
2021/09/10 00:24:22;;;;;;;;;;;;;;;16.04;79.66;100289.12;1708183;82;20245;-81
2021/09/10 00:26:50;;;;;;;;;;;;;;;15.99;79.82;100287.53;1710562;82;21082;-80
2021/09/10 00:29:17;;;;;;;;;;;;;;;15.89;80.42;100288.33;1706222;81;20178;-80
2021/09/10 00:31:46;;;;;;;;;;;;;;;15.84;80.58;100286.23;1707005;82;20201;-82
2021/09/10 00:34:11;;;;;;;;;;;;;;;15.82;81.20;100285.60;1705970;82;20144;-81
2021/09/10 00:36:38;;;;;;;;;;;;;;;15.78;80.99;100279.83;1704693;83;20185;-80
2021/09/10 00:39:05;;;;;;;;;;;;;;;15.74;81.14;100285.17;1708594;82;21078;-81
2021/09/10 00:41:33;;;;;;;;;;;;;;;15.72;81.40;100285.03;1710774;82;20187;-80
2021/09/10 00:43:58;;;;;;;;;;;;;;;15.66;81.68;100284.44;1702816;83;20827;-81
2021/09/10 00:46:24;;;;;;;;;;;;;;;15.65;81.71;100288.13;1705174;82;20463;-80
2021/09/10 00:48:50;;;;;;;;;;;;;;;15.69;81.34;100282.25;1705016;82;20214;-82
2021/09/10 00:51:16;;;;;;;;;;;;;;;15.72;80.97;100279.22;1704517;83;21118;-81
2021/09/10 00:53:42;;;;;;;;;;;;;;;15.72;80.71;100285.03;1706311;83;20161;-79
2021/09/10 00:56:12;;;;;;;;;;;;;;;15.71;81.01;100286.88;1705242;82;20488;-82
2021/09/10 00:58:42;;;;;;;;;;;;;;;15.72;80.58;100279.22;1705310;82;20163;-83
2021/09/10 01:01:08;;;;;;;;;;;;;;;15.73;80.14;100279.52;1687413;83;20447;-83
2021/09/10 01:03:36;;;;;;;;;;;;;;;15.75;80.59;100282.84;1685357;83;21223;-83
2021/09/10 01:06:03;;;;;;;;;;;;;;;15.73;80.35;100275.52;1713203;81;21083;-81
2021/09/10 01:08:30;;;;;;;;;;;;;;;15.68;80.75;100283.25;1707996;83;20551;-81
2021/09/10 01:10:57;;;;;;;;;;;;;;;15.68;80.55;100277.93;1707824;81;20242;-81
2021/09/10 01:13:26;;;;;;;;;;;;;;;15.68;80.79;100280.59;1703956;83;20177;-80
2021/09/10 01:15:58;;;;;;;;;;;;;;;15.68;80.35;100273.94;1703112;83;20576;-81
2021/09/10 01:18:25;;;;;;;;;;;;;;;15.66;80.79;100275.97;1681871;81;20230;-81
2021/09/10 01:20:50;;;;;;;;;;;;;;;15.64;80.53;100275.31;1703463;83;20138;-81
2021/09/10 01:23:16;;;;;;;;;;;;;;;15.63;80.19;100276.34;1706280;83;20193;-81
2021/09/10 01:25:45;;;;;;;;;;;;;;;15.62;80.12;100277.34;1703598;83;20333;-80
2021/09/10 01:28:15;;;;;;;;;;;;;;;15.57;80.60;100274.42;1689193;83;21284;-81
2021/09/10 01:30:42;;;;;;;;;;;;;;;15.58;80.30;100276.05;1704510;83;20150;-81
2021/09/10 01:33:10;;;;;;;;;;;;;;;15.56;80.64;100280.23;1683231;83;20136;-82
2021/09/10 01:35:37;;;;;;;;;;;;;;;15.55;80.58;100278.59;1692362;83;20568;-80
2021/09/10 01:38:05;;;;;;;;;;;;;;;15.55;80.77;100276.42;1692365;82;20661;-82
2021/09/10 01:40:33;;;;;;;;;;;;;;;15.51;80.54;100279.16;1671356;83;21407;-79
2021/09/10 01:42:58;;;;;;;;;;;;;;;15.48;80.92;100278.20;1670048;84;20177;-80
2021/09/10 01:45:24;;;;;;;;;;;;;;;15.46;80.85;100280.20;1692867;83;20612;-80
2021/09/10 01:47:49;;;;;;;;;;;;;;;15.43;80.92;100276.91;1690843;83;20166;-80
2021/09/10 01:50:19;;;;;;;;;;;;;;;15.38;81.42;100275.80;1692546;82;20147;-81
2021/09/10 01:52:46;;;;;;;;;;;;;;;15.20;82.39;100269.02;1689951;83;21143;-80
2021/09/10 01:55:13;;;;;;;;;;;;;;;15.14;82.84;100272.41;1698030;83;20149;-81
2021/09/10 01:57:42;;;;;;;;;;;;;;;15.04;83.40;100267.37;1695173;83;20169;-81
2021/09/10 02:00:08;;;;;;;;;;;;;;;14.95;83.78;100260.48;1667865;83;20202;-79
2021/09/10 02:02:36;;;;;;;;;;;;;;;14.92;84.30;100268.83;1694751;83;20466;-80
2021/09/10 02:05:02;;;;;;;;;;;;;;;14.88;84.48;100274.17;1691589;82;21184;-82
2021/09/10 02:07:27;;;;;;;;;;;;;;;14.81;84.72;100270.61;1696297;83;20179;-80
2021/09/10 02:09:53;;;;;;;;;;;;;;;14.75;85.04;100266.02;1692115;83;20186;-81
2021/09/10 02:12:22;;;;;;;;;;;;;;;14.75;85.11;100266.02;1688410;83;20573;-82
2021/09/10 02:14:47;;;;;;;;;;;;;;;14.68;85.69;100266.73;1690549;83;20235;-82
2021/09/10 02:17:16;;;;;;;;;;;;;;;14.72;85.15;100266.67;1689946;83;21089;-82
2021/09/10 02:19:44;;;;;;;;;;;;;;;14.74;84.98;100269.16;1689159;82;20481;-81
2021/09/10 02:22:13;;;;;;;;;;;;;;;14.79;84.40;100272.12;1694434;83;20106;-81
2021/09/10 02:24:39;;;;;;;;;;;;;;;14.83;84.25;100267.25;1670750;84;20201;-80
2021/09/10 02:27:05;;;;;;;;;;;;;;;14.84;84.26;100266.26;1692753;83;20198;-80
2021/09/10 02:29:31;;;;;;;;;;;;;;;14.83;84.41;100269.91;1694257;83;21168;-79
2021/09/10 02:31:56;;;;;;;;;;;;;;;14.84;84.29;100263.59;1689400;83;20243;-80
2021/09/10 02:34:22;;;;;;;;;;;;;;;14.79;84.54;100263.30;1697528;82;20161;-80
2021/09/10 02:36:51;;;;;;;;;;;;;;;14.78;84.55;100260.33;1706705;81;20145;-80
2021/09/10 02:39:17;;;;;;;;;;;;;;;14.74;84.78;100257.70;1712394;82;20195;-81
2021/09/10 02:41:44;;;;;;;;;;;;;;;14.79;84.13;100261.97;1706929;82;21093;-81
2021/09/10 02:44:13;;;;;;;;;;;;;;;14.80;84.20;100256.98;1704749;82;20155;-81
2021/09/10 02:46:39;;;;;;;;;;;;;;;14.81;83.76;100261.30;1703240;82;20503;-81
2021/09/10 02:49:06;;;;;;;;;;;;;;;14.76;83.74;100255.68;1706349;82;20539;-81
2021/09/10 02:51:33;;;;;;;;;;;;;;;14.70;84.51;100256.73;1708541;82;20157;-80
2021/09/10 02:54:00;;;;;;;;;;;;;;;14.66;84.72;100258.09;1686404;82;20953;-79
2021/09/10 02:56:28;;;;;;;;;;;;;;;14.65;84.38;100252.95;1708436;82;20221;-79
2021/09/10 02:58:55;;;;;;;;;;;;;;;14.65;84.45;100257.79;1707195;82;20442;-81
2021/09/10 03:01:22;;;;;;;;;;;;;;;14.68;84.04;100256.58;1682117;83;20131;-79
2021/09/10 03:03:47;;;;;;;;;;;;;;;14.69;83.79;100254.26;1708348;82;20192;-81
2021/09/10 03:06:14;;;;;;;;;;;;;;;14.69;83.79;100245.77;1708120;82;22034;-82
2021/09/10 03:08:42;;;;;;;;;;;;;;;14.65;84.03;100253.80;1704143;82;20235;-82
2021/09/10 03:11:10;;;;;;;;;;;;;;;14.62;84.00;100255.49;1710163;82;20205;-82
2021/09/10 03:13:36;;;;;;;;;;;;;;;14.61;84.36;100255.67;1708687;82;20376;-81
2021/09/10 03:16:03;;;;;;;;;;;;;;;14.62;83.99;100253.31;1704299;82;20319;-79
2021/09/10 03:18:31;;;;;;;;;;;;;;;14.60;84.03;100254.82;1708057;82;21098;-84
2021/09/10 03:20:58;;;;;;;;;;;;;;;14.56;84.07;100252.19;1711907;82;20139;-81
2021/09/10 03:23:27;;;;;;;;;;;;;;;14.54;84.58;100254.18;1709676;82;20555;-81
2021/09/10 03:25:53;;;;;;;;;;;;;;;14.53;84.40;100251.22;1705766;82;20956;-81
2021/09/10 03:28:18;;;;;;;;;;;;;;;14.51;84.32;100245.23;1679603;83;20501;-81
2021/09/10 03:30:47;;;;;;;;;;;;;;;14.40;85.41;100257.12;1704090;82;20504;-81
2021/09/10 03:33:14;;;;;;;;;;;;;;;14.28;86.11;100254.59;1705727;82;20220;-80
2021/09/10 03:35:40;;;;;;;;;;;;;;;14.26;86.52;100257.42;1704054;82;20202;-81
2021/09/10 03:38:09;;;;;;;;;;;;;;;14.18;87.17;100254.80;1712804;82;20424;-80
2021/09/10 03:40:38;;;;;;;;;;;;;;;14.17;87.10;100254.50;1704993;82;20174;-81
2021/09/10 03:43:08;;;;;;;;;;;;;;;14.15;87.40;100252.02;1699170;83;20440;-84
2021/09/10 03:45:34;;;;;;;;;;;;;;;14.09;87.66;100252.73;1701856;83;20519;-80
2021/09/10 03:48:01;;;;;;;;;;;;;;;14.05;88.30;100243.96;1708354;82;20128;-82
2021/09/10 03:50:27;;;;;;;;;;;;;;;14.02;88.26;100250.44;1706234;82;20107;-81
2021/09/10 03:52:55;;;;;;;;;;;;;;;14.03;88.54;100247.27;1708899;82;20219;-80
2021/09/10 03:55:22;;;;;;;;;;;;;;;13.97;88.56;100249.64;1685994;82;20155;-82
2021/09/10 03:57:52;;;;;;;;;;;;;;;14.03;88.32;100245.95;1708490;83;20255;-81
2021/09/10 04:00:18;;;;;;;;;;;;;;;14.02;88.42;100248.30;1710736;83;20114;-81
2021/09/10 04:02:45;;;;;;;;;;;;;;;14.05;88.19;100248.76;1705675;82;20415;-82
2021/09/10 04:05:23;;;;;;;;;;;;;;;14.08;87.68;100253.72;1705169;82;20576;-82
2021/09/10 04:07:52;;;;;;;;;;;;;;;14.12;87.79;100250.20;1704328;82;20651;-80
2021/09/10 04:10:18;;;;;;;;;;;;;;;14.08;87.72;100254.23;1706846;82;20124;-81
2021/09/10 04:12:46;;;;;;;;;;;;;;;14.10;87.60;100257.53;1705089;83;20159;-80
2021/09/10 04:15:12;;;;;;;;;;;;;;;14.14;87.09;100254.85;1703799;82;20175;-81
2021/09/10 04:17:39;;;;;;;;;;;;;;;14.16;86.97;100259.47;1703283;82;20159;-80
2021/09/10 04:20:06;;;;;;;;;;;;;;;14.17;86.93;100265.13;1709191;82;21193;-82
2021/09/10 04:22:31;;;;;;;;;;;;;;;14.18;86.96;100257.45;1705613;82;20241;-79
2021/09/10 04:25:03;;;;;;;;;;;;;;;14.16;87.14;100256.82;1689145;83;20214;-81
2021/09/10 04:27:32;;;;;;;;;;;;;;;14.19;86.77;100256.47;1707719;82;20139;-81
2021/09/10 04:30:02;;;;;;;;;;;;;;;14.18;86.55;100246.36;1704684;81;20227;-82
2021/09/10 04:32:30;;;;;;;;;;;;;;;14.19;87.00;100255.95;1686878;83;21001;-82
2021/09/10 04:34:58;;;;;;;;;;;;;;;14.22;86.88;100257.44;1704029;83;20250;-82
2021/09/10 04:37:23;;;;;;;;;;;;;;;14.21;87.59;100255.78;1691953;83;20214;-84
2021/09/10 04:39:52;;;;;;;;;;;;;;;14.23;87.15;100253.79;1702759;83;21048;-86
2021/09/10 04:42:18;;;;;;;;;;;;;;;14.25;87.04;100257.09;1684615;83;20198;-83
2021/09/10 04:44:46;;;;;;;;;;;;;;;14.33;87.10;100262.33;1707380;83;21080;-82
2021/09/10 04:47:11;;;;;;;;;;;;;;;14.33;86.88;100261.51;1707145;82;20187;-85
2021/09/10 04:49:37;;;;;;;;;;;;;;;14.34;86.60;100256.02;1661899;82;20136;-82
2021/09/10 04:52:03;;;;;;;;;;;;;;;14.38;86.48;100256.48;1706308;81;20487;-85
2021/09/10 04:54:31;;;;;;;;;;;;;;;14.36;86.65;100258.50;1703557;82;20182;-83
2021/09/10 04:56:56;;;;;;;;;;;;;;;14.41;86.46;100256.64;1705774;82;21340;-84
2021/09/10 04:59:26;;;;;;;;;;;;;;;14.40;86.54;100262.44;1702801;82;20109;-83
2021/09/10 05:01:52;;;;;;;;;;;;;;;14.47;86.17;100259.91;1702358;82;20169;-83
2021/09/10 05:04:22;;;;;;;;;;;;;;;14.51;85.96;100257.20;1704866;82;20421;-81
2021/09/10 05:06:49;;;;;;;;;;;;;;;14.52;85.96;100254.88;1705795;81;20507;-84
2021/09/10 05:09:16;;;;;;;;;;;;;;;14.58;85.72;100262.12;1705961;82;21170;-83
2021/09/10 05:11:45;;;;;;;;;;;;;;;14.59;86.03;100255.81;1707145;82;20181;-83
2021/09/10 05:14:13;;;;;;;;;;;;;;;14.58;86.07;100256.81;1701038;82;20199;-82
2021/09/10 05:16:39;;;;;;;;;;;;;;;14.62;86.09;100260.80;1704018;83;20228;-83
2021/09/10 05:19:05;;;;;;;;;;;;;;;14.64;86.27;100260.63;1684294;83;21090;-83
2021/09/10 05:21:31;;;;;;;;;;;;;;;14.72;85.90;100257.37;1683617;83;22688;-82
2021/09/10 05:23:58;;;;;;;;;;;;;;;14.76;85.97;100261.00;1701519;83;20241;-83
2021/09/10 05:26:29;;;;;;;;;;;;;;;14.76;85.81;100257.02;1704461;83;20230;-86
2021/09/10 05:28:56;;;;;;;;;;;;;;;14.83;85.73;100265.41;1704019;82;20311;-88
2021/09/10 05:31:21;;;;;;;;;;;;;;;14.89;85.30;100262.55;1710629;81;20187;-81
2021/09/10 05:33:49;;;;;;;;;;;;;;;14.90;85.39;100258.89;1709777;82;20483;-86
2021/09/10 05:36:14;;;;;;;;;;;;;;;14.96;85.30;100259.48;1710216;82;20176;-83
2021/09/10 05:38:43;;;;;;;;;;;;;;;15.06;85.33;100260.03;1689595;82;20556;-89
2021/09/10 05:41:08;;;;;;;;;;;;;;;15.10;85.17;100259.66;1706855;82;20180;-83
2021/09/10 05:43:34;;;;;;;;;;;;;;;15.17;84.89;100265.91;1691080;83;20138;-88
2021/09/10 05:46:04;;;;;;;;;;;;;;;15.22;84.87;100258.20;1692653;83;22612;-85
2021/09/10 05:48:29;;;;;;;;;;;;;;;15.31;84.62;100269.06;1704323;83;20103;-89
2021/09/10 05:50:57;;;;;;;;;;;;;;;15.42;84.08;100263.78;1692205;83;20294;-84
2021/09/10 05:53:28;;;;;;;;;;;;;;;15.38;83.51;100267.81;1687370;82;20261;-86
2021/09/10 05:55:53;;;;;;;;;;;;;;;15.43;83.41;100271.58;1704790;82;20106;-83
2021/09/10 05:58:19;;;;;;;;;;;;;;;15.56;83.59;100264.77;1703075;82;21831;-83
2021/09/10 06:00:48;;;;;;;;;;;;;;;15.61;83.08;100273.02;1701515;82;20270;-85
2021/09/10 06:03:19;;;;;;;;;;;;;;;15.71;83.20;100272.75;1703384;83;20134;-81
2021/09/10 06:05:46;;;;;;;;;;;;;;;15.79;82.27;100278.80;1702752;83;20229;-83
2021/09/10 06:08:12;;;;;;;;;;;;;;;15.88;82.08;100274.20;1707710;82;20120;-76
2021/09/10 06:10:41;;;;;;;;;;;;;;;15.94;81.23;100277.93;1706471;82;21282;-82
2021/09/10 06:13:09;;;;;;;;;;;;;;;16.03;81.18;100284.80;1699691;82;20205;-83
2021/09/10 06:15:37;;;;;;;;;;;;;;;16.06;80.72;100284.41;1709517;83;20130;-83
2021/09/10 06:18:06;;;;;;;;;;;;;;;16.12;80.72;100288.98;1707045;83;20151;-82
2021/09/10 06:20:33;;;;;;;;;;;;;;;16.20;80.67;100289.89;1708511;82;20114;-84
2021/09/10 06:23:00;;;;;;;;;;;;;;;16.30;80.60;100285.91;1706119;82;21206;-82
2021/09/10 06:25:29;;;;;;;;;;;;;;;16.36;80.13;100292.32;1709645;82;20195;-84
2021/09/10 06:27:55;;;;;;;;;;;;;;;16.45;79.91;100291.66;1704009;83;20214;-87
2021/09/10 06:30:20;;;;;;;;;;;;;;;16.55;79.77;100295.36;1703676;82;20124;-83
2021/09/10 06:32:48;;;;;;;;;;;;;;;16.65;79.31;100293.17;1703457;83;20284;-82
2021/09/10 06:35:16;;;;;;;;;;;;;;;16.73;78.61;100297.02;1703223;82;22433;-82
2021/09/10 06:37:43;;;;;;;;;;;;;;;16.81;78.12;100300.91;1704592;83;20199;-84
2021/09/10 06:40:11;;;;;;;;;;;;;;;16.88;77.23;100297.50;1684896;83;20642;-83
2021/09/10 06:42:36;;;;;;;;;;;;;;;16.89;76.68;100299.97;1706971;83;20212;-84
2021/09/10 06:45:02;;;;;;;;;;;;;;;16.91;76.49;100294.44;1704168;83;20469;-85
2021/09/10 06:47:31;;;;;;;;;;;;;;;16.96;76.62;100298.16;1704388;83;21247;-85
2021/09/10 06:49:57;;;;;;;;;;;;;;;16.96;76.34;100294.67;1707378;83;20316;-85
2021/09/10 06:52:23;;;;;;;;;;;;;;;17.03;76.41;100299.03;1702707;83;20265;-85
2021/09/10 06:54:52;;;;;;;;;;;;;;;17.12;75.96;100299.72;1684947;83;20225;-84
2021/09/10 06:57:17;;;;;;;;;;;;;;;17.17;75.70;100291.95;1700353;82;20179;-84
2021/09/10 06:59:45;;;;;;;;;;;;;;;17.26;75.76;100295.78;1702969;83;21143;-84
2021/09/10 07:02:10;;;;;;;;;;;;;;;17.32;74.50;100291.80;1708213;82;20198;-84
2021/09/10 07:04:40;;;;;;;;;;;;;;;17.35;73.94;100291.41;1706305;83;20192;-83
2021/09/10 07:07:05;;;;;;;;;;;;;;;17.50;74.41;100289.14;1707423;82;20685;-83
2021/09/10 07:09:31;;;;;;;;;;;;;;;17.61;73.85;100293.91;1700508;82;20189;-83
2021/09/10 07:11:59;;;;;;;;;;;;;;;17.63;73.18;100299.05;1708751;82;20911;-84
2021/09/10 07:14:24;;;;;;;;;;;;;;;17.69;73.09;100303.08;1714709;82;20537;-81
2021/09/10 07:16:50;;;;;;;;;;;;;;;17.79;72.79;100305.40;1687743;83;20136;-82
2021/09/10 07:19:15;;;;;;;;;;;;;;;17.89;73.12;100305.86;1706570;81;21025;-83
2021/09/10 07:21:41;;;;;;;;;;;;;;;17.97;72.44;100312.06;1705933;82;20177;-81
2021/09/10 07:24:07;;;;;;;;;;;;;;;17.99;71.37;100311.34;1704713;82;21006;-80
2021/09/10 07:26:39;;;;;;;;;;;;;;;18.07;71.33;100305.80;1709257;83;20158;-81
2021/09/10 07:29:05;;;;;;;;;;;;;;;18.16;71.21;100316.62;1709776;82;20144;-83
2021/09/10 07:31:31;;;;;;;;;;;;;;;18.21;70.46;100308.84;1700147;83;20126;-83
2021/09/10 07:33:59;;;;;;;;;;;;;;;18.25;69.21;100320.75;1705939;83;20166;-81
2021/09/10 07:36:25;;;;;;;;;;;;;;;18.34;69.57;100320.58;1704882;81;21233;-80
2021/09/10 07:38:50;;;;;;;;;;;;;;;18.42;69.78;100323.05;1707818;82;20495;-83
2021/09/10 07:41:16;;;;;;;;;;;;;;;18.51;69.59;100320.50;1707627;81;20159;-80
2021/09/10 07:43:42;;;;;;;;;;;;;;;18.58;68.56;100320.00;1702818;83;20182;-82
2021/09/10 07:46:09;;;;;;;;;;;;;;;18.65;68.06;100324.01;1706608;83;20171;-82
2021/09/10 07:48:37;;;;;;;;;;;;;;;18.72;68.09;100322.66;1706419;83;21782;-83
2021/09/10 07:51:02;;;;;;;;;;;;;;;18.86;67.73;100327.01;1701660;83;20190;-81
2021/09/10 07:53:30;;;;;;;;;;;;;;;18.94;67.85;100326.82;1702804;82;20268;-81
2021/09/10 07:55:55;;;;;;;;;;;;;;;19.02;67.45;100323.11;1706638;82;20980;-82
2021/09/10 07:58:21;;;;;;;;;;;;;;;19.06;66.24;100332.88;1702187;82;20188;-83
2021/09/10 08:00:47;;;;;;;;;;;;;;;19.08;66.17;100340.17;1707154;82;21942;-81
2021/09/10 08:03:14;;;;;;;;;;;;;;;19.06;66.54;100334.21;1708749;83;20183;-82
2021/09/10 08:05:43;;;;;;;;;;;;;;;19.18;66.76;100337.38;1699725;82;20704;-82
2021/09/10 08:08:11;;;;;;;;;;;;;;;19.30;66.13;100340.25;1711591;83;20510;-83
2021/09/10 08:10:37;;;;;;;;;;;;;;;19.34;65.53;100341.49;1705438;82;20775;-81
2021/09/10 08:13:04;;;;;;;;;;;;;;;19.46;65.30;100344.86;1687949;83;21076;-80
2021/09/10 08:15:32;;;;;;;;;;;;;;;19.53;65.08;100338.98;1700255;83;20189;-83
2021/09/10 08:17:57;;;;;;;;;;;;;;;19.63;64.93;100331.30;1687499;83;21026;-82
2021/09/10 08:20:23;;;;;;;;;;;;;;;19.72;64.84;100331.38;1710793;82;20223;-83
2021/09/10 08:22:50;;;;;;;;;;;;;;;19.91;64.19;100332.88;1712628;83;20150;-82
2021/09/10 08:25:15;;;;;;;;;;;;;;;19.92;63.98;100331.85;1702759;83;21270;-85
2021/09/10 08:27:42;;;;;;;;;;;;;;;20.03;63.74;100329.83;1707307;82;20162;-86
2021/09/10 08:30:08;;;;;;;;;;;;;;;20.11;63.85;100325.27;1708469;83;20449;-86
2021/09/10 08:32:34;;;;;;;;;;;;;;;20.14;64.08;100323.50;1710237;83;20210;-87
2021/09/10 08:35:02;;;;;;;;;;;;;;;20.22;63.90;100324.57;1711723;83;20878;-84
2021/09/10 08:37:29;;;;;;;;;;;;;;;20.25;63.47;100324.14;1708097;82;20303;-85
2021/09/10 08:39:57;;;;;;;;;;;;;;;20.32;63.36;100323.56;1700044;82;20174;-87
2021/09/10 08:42:24;;;;;;;;;;;;;;;20.37;63.27;100315.71;1704746;82;20147;-84
2021/09/10 08:44:50;;;;;;;;;;;;;;;20.43;62.97;100321.55;1705393;83;20213;-86
2021/09/10 08:47:18;;;;;;;;;;;;;;;20.54;62.59;100319.19;1701317;82;20194;-84
2021/09/10 08:49:47;;;;;;;;;;;;;;;20.58;62.02;100315.03;1704662;83;20631;-84
2021/09/10 08:52:16;;;;;;;;;;;;;;;20.68;61.92;100316.75;1702057;83;20229;-88
2021/09/10 08:54:41;;;;;;;;;;;;;;;20.79;61.39;100316.56;1706683;83;20267;-87
2021/09/10 08:57:11;;;;;;;;;;;;;;;20.92;61.18;100315.62;1708041;83;20494;-85
2021/09/10 08:59:37;;;;;;;;;;;;;;;21.01;60.70;100314.30;1703730;82;20265;-85
2021/09/10 09:02:04;;;;;;;;;;;;;;;21.07;60.82;100313.41;1701328;83;22343;-83
2021/09/10 09:04:32;;;;;;;;;;;;;;;21.12;61.04;100310.88;1701230;83;20165;-84
2021/09/10 09:07:00;;;;;;;;;;;;;;;21.24;60.76;100318.19;1703098;82;20158;-88
2021/09/10 09:09:47;;;;;;;;;;;;;;;21.31;60.02;100316.27;1711108;83;20198;-88
2021/09/10 09:12:22;;;;;;;;;;;;;;;21.42;60.27;100316.86;1703028;83;20210;-84
2021/09/10 09:14:59;;;;;;;;;;;;;;;21.48;59.97;100325.36;1708777;83;22033;-85
2021/09/10 09:17:34;;;;;;;;;;;;;;;21.48;58.76;100326.70;1683817;83;20186;-86
2021/09/10 09:20:24;;;;;;;;;;;;;;;21.54;58.98;100316.16;1685907;83;20211;-84
2021/09/10 09:23:02;;;;;;;;;;;;;;;21.65;59.56;100308.68;1709545;82;20227;-84
2021/09/10 09:25:38;;;;;;;;;;;;;;;21.74;59.62;100312.70;1701322;83;20202;-85
2021/09/10 09:28:27;;;;;;;;;;;;;;;21.88;59.54;100316.86;1699399;83;20178;-82
2021/09/10 09:31:00;;;;;;;;;;;;;;;21.94;59.01;100314.30;1712095;83;21229;-85
2021/09/10 09:33:30;;;;;;;;;;;;;;;22.00;58.82;100316.08;1705876;82;20182;-84
2021/09/10 09:36:02;;;;;;;;;;;;;;;22.08;57.60;100313.59;1706524;82;20198;-84
2021/09/10 09:38:29;;;;;;;;;;;;;;;22.18;58.30;100309.84;1701387;82;20472;-86
2021/09/10 09:41:01;;;;;;;;;;;;;;;22.26;57.18;100313.54;1706381;82;21003;-86
2021/09/10 09:43:30;;;;;;;;;;;;;;;22.32;56.45;100305.11;1700384;82;20275;-87
2021/09/10 09:45:56;;;;;;;;;;;;;;;22.37;56.12;100309.27;1704025;83;20219;-86
2021/09/10 09:48:23;;;;;;;;;;;;;;;22.36;55.69;100309.81;1707963;82;20187;-86
2021/09/10 09:50:52;;;;;;;;;;;;;;;22.46;56.15;100314.62;1706125;83;20186;-85
2021/09/10 09:53:22;;;;;;;;;;;;;;;22.46;56.52;100306.55;1706708;82;21140;-86
2021/09/10 09:55:49;;;;;;;;;;;;;;;;;;1700787;83;20516;-85
2021/09/10 09:58:19;;;;;;;;;;;;;;;22.54;55.16;100308.92;1708667;82;20521;-86
2021/09/10 10:00:49;;;;;;;;;;;;;;;22.66;55.79;100309.45;1686561;82;20179;-85
2021/09/10 10:03:17;;;;;;;;;;;;;;;22.57;55.03;100296.85;1709069;82;20241;-82
2021/09/10 10:05:53;;;;;;;;;;;;;;;22.80;55.05;100306.83;1701332;83;21978;-83
2021/09/10 10:08:25;;;;;;;;;;;;;;;22.89;54.62;100310.00;1701779;83;20516;-85
2021/09/10 10:10:53;;;;;;;;;;;;;;;22.92;53.83;100311.69;1689485;82;20196;-84
2021/09/10 10:13:33;;;;;;;;;;;;;;;23.02;53.15;100303.55;1687252;83;21303;-85
2021/09/10 10:15:59;;;;;;;;;;;;;;;23.12;52.91;100311.91;1704187;83;20285;-84
2021/09/10 10:18:39;;;;;;;;;;;;;;;23.24;51.95;100309.18;1692374;83;21107;-82
2021/09/10 10:21:07;;;;;;;;;;;;;;;23.27;51.94;100306.86;1712553;82;20184;-82
2021/09/10 10:23:45;;;;;;;;;;;;;;;23.25;50.57;100308.95;1707716;82;20210;-84
2021/09/10 10:26:17;;;;;;;;;;;;;;;23.29;50.79;100307.97;1701845;82;20319;-84
2021/09/10 10:28:47;;;;;;;;;;;;;;;23.38;51.20;100298.97;1699895;82;20186;-83
2021/09/10 10:31:39;;;;;;;;;;;;;;;23.47;51.11;100300.23;1701843;83;40131;-84
2021/09/10 10:34:08;;;;;;;;;;;;;;;23.56;51.61;100302.85;1706134;82;20214;-84
2021/09/10 10:36:36;;;;;;;;;;;;;;;23.58;51.12;100299.92;1713524;81;20178;-82
2021/09/10 10:39:13;;;;;;;;;;;;;;;23.59;50.79;100301.03;1702850;82;20208;-82
2021/09/10 10:42:01;;;;;;;;;;;;;;;23.65;50.98;100294.68;1704279;82;20510;-84
2021/09/10 10:44:36;;;;;;;;;;;;;;;23.77;50.18;100296.52;1706696;82;20161;-84
2021/09/10 10:47:15;;;;;;;;;;;;;;;23.87;49.84;100298.64;1704005;83;20177;-85
2021/09/10 10:49:43;;;;;;;;;;;;;;;23.91;50.00;100287.13;1699252;83;20142;-84
2021/09/10 10:52:34;;;;;;;;;;;;;;;24.03;49.72;100287.59;1709568;82;20289;-85
2021/09/10 10:55:32;;;;;;;;;;;;;;;24.13;50.52;100286.41;1705893;83;20202;-84
2021/09/10 10:58:25;;;;;;;;;;;;;;;24.14;49.39;100288.05;1705702;83;21170;-84
2021/09/10 11:00:54;;;;;;;;;;;;;;;24.17;48.78;100287.57;1709568;82;20142;-86
2021/09/10 11:03:23;;;;;;;;;;;;;;;24.30;49.77;100281.88;1700697;82;20202;-87
2021/09/10 11:05:57;;;;;;;;;;;;;;;24.26;48.92;100282.06;1700769;82;21301;-86
2021/09/10 11:08:41;;;;;;;;;;;;;;;24.35;48.84;100290.05;1703341;83;20543;-85
2021/09/10 11:11:11;;;;;;;;;;;;;;;24.44;47.51;100288.28;1699095;83;21182;-85
2021/09/10 11:13:43;;;;;;;;;;;;;;;24.43;47.87;100278.57;1711927;82;20162;-84
2021/09/10 11:16:12;;;;;;;;;;;;;;;24.54;47.97;100287.11;1703875;82;20185;-86
2021/09/10 11:18:41;;;;;;;;;;;;;;;24.61;48.06;100278.36;1681839;83;20729;-87
2021/09/10 11:21:09;;;;;;;;;;;;;;;24.70;48.59;100289.03;1689012;83;20187;-86
2021/09/10 11:23:37;;;;;;;;;;;;;;;24.83;48.00;100284.36;1708445;82;21161;-83
2021/09/10 11:26:07;;;;;;;;;;;;;;;24.88;47.48;100287.13;1701458;83;20716;-88
2021/09/10 11:28:34;;;;;;;;;;;;;;;24.91;46.04;100278.52;1701569;83;20507;-86
2021/09/10 11:31:03;;;;;;;;;;;;;;;24.98;46.68;100276.44;1703485;82;20190;-85
2021/09/10 11:33:35;;;;;;;;;;;;;;;25.04;46.45;100280.85;1704159;83;20193;-84
2021/09/10 11:36:00;;;;;;;;;;;;;;;25.08;46.49;100280.65;1707988;81;21098;-85
2021/09/10 11:38:29;;;;;;;;;;;;;;;24.95;42.31;100281.53;1716039;82;20248;-87
2021/09/10 11:40:59;;;;;;;;;;;;;;;24.95;43.34;100264.78;1702801;82;20211;-85
2021/09/10 11:43:29;;;;;;;;;;;;;;;25.05;43.11;100273.04;1721344;82;20200;-86
2021/09/10 11:46:09;;;;;;;;;;;;;;;25.30;44.27;100275.83;1720094;82;20170;-84
2021/09/10 11:48:36;;;;;;;;;;;;;;;25.21;43.16;100273.25;1720633;82;21007;-84
2021/09/10 11:51:06;;;;;;;;;;;;;;;25.33;43.64;100272.62;1718942;82;20502;-84
2021/09/10 11:53:56;;;;;;;;;;;;;;;25.39;42.73;100277.03;1719293;82;20219;-83
2021/09/10 11:56:21;;;;;;;;;;;;;;;25.40;39.99;100273.27;1719241;82;20144;-87
2021/09/10 11:58:53;;;;;;;;;;;;;;;25.57;40.45;100271.00;1716152;81;20181;-87
2021/09/10 12:01:22;;;;;;;;;;;;;;;25.46;40.88;100273.31;1718218;82;20118;-85
2021/09/10 12:03:57;;;;;;;;;;;;;;;25.70;41.73;100263.86;1712031;82;20231;-84
2021/09/10 12:06:35;;;;;;;;;;;;;;;25.84;41.62;100266.14;1714987;82;20187;-85
2021/09/10 12:09:18;;;;;;;;;;;;;;;25.95;41.31;100261.14;1707734;82;20187;-83
2021/09/10 12:12:05;;;;;;;;;;;;;;;26.02;40.74;100252.29;1716236;82;20230;-84
2021/09/10 12:14:55;;;;;;;;;;;;;;;26.03;39.20;100252.58;1716363;82;21218;-83
2021/09/10 12:17:27;;;;;;;;;;;;;;;26.14;40.32;100257.55;1718941;82;20183;-85
2021/09/10 12:20:00;;;;;;;;;;;;;;;26.10;39.86;100257.77;1698385;82;20200;-83
2021/09/10 12:22:38;;;;;;;;;;;;;;;25.99;38.45;100256.86;1721195;82;21204;-84
2021/09/10 12:25:25;;;;;;;;;;;;;;;26.01;38.31;100250.67;1711138;80;20178;-85
2021/09/10 12:28:08;;;;;;;;;;;;;;;26.09;38.34;100250.20;1721729;82;22516;-83
2021/09/10 12:30:52;;;;;;;;;;;;;;;26.21;39.86;100241.09;1723750;82;20097;-81
2021/09/10 12:33:23;;;;;;;;;;;;;;;26.16;38.71;100247.27;1709017;82;20224;-83
2021/09/10 12:35:57;;;;;;;;;;;;;;;26.36;39.78;100239.05;1717204;82;20187;-85
2021/09/10 12:38:24;;;;;;;;;;;;;;;26.49;39.90;100234.53;1716913;82;20117;-84
2021/09/10 12:40:51;;;;;;;;;;;;;;;26.59;39.85;100235.16;1716191;82;21102;-83
2021/09/10 12:43:23;;;;;;;;;;;;;;;26.68;38.38;100234.98;1718636;82;20563;-79
2021/09/10 12:45:48;;;;;;;;;;;;;;;26.80;38.03;100228.81;1719103;82;20127;-83
2021/09/10 12:48:14;;;;;;;;;;;;;;;26.94;37.88;100235.94;1720879;82;20146;-84